createdAt,value
2024-01-24T00:00:47.240Z,44.59
2024-01-24T00:03:33.455Z,44.80
2024-01-24T00:06:19.602Z,45.03
2024-01-24T00:09:05.989Z,44.67
2024-01-24T00:11:59.105Z,44.69
2024-01-24T00:14:45.302Z,44.36
2024-01-24T00:17:31.504Z,45.16
2024-01-24T00:20:17.624Z,44.70
2024-01-24T00:23:03.533Z,44.82
2024-01-24T00:25:50.764Z,44.43
2024-01-24T00:28:36.849Z,44.61
2024-01-24T00:31:22.720Z,44.49
2024-01-24T00:34:09.457Z,44.69
2024-01-24T00:36:56.379Z,44.51
2024-01-24T00:39:42.920Z,44.71
2024-01-24T00:42:29.172Z,44.86
2024-01-24T00:45:15.244Z,44.34
2024-01-24T00:48:11.977Z,44.52
2024-01-24T00:50:58.138Z,44.50
2024-01-24T00:53:45.491Z,44.37
2024-01-24T00:56:31.305Z,43.96
2024-01-24T00:59:19.249Z,43.79
2024-01-24T01:02:05.126Z,44.21
2024-01-24T01:04:51.023Z,44.50
2024-01-24T01:07:36.932Z,44.06
2024-01-24T01:10:23.156Z,43.84
2024-01-24T01:13:09.000Z,43.94
2024-01-24T01:15:57.008Z,44.94
2024-01-24T01:18:44.542Z,44.08
2024-01-24T01:21:30.678Z,44.83
2024-01-24T01:24:19.136Z,44.52
2024-01-24T01:27:05.116Z,44.79
2024-01-24T01:29:52.944Z,44.31
2024-01-24T01:32:40.248Z,44.93
2024-01-24T01:35:27.891Z,44.30
2024-01-24T01:38:17.101Z,44.25
2024-01-24T01:41:05.573Z,44.82
2024-01-24T01:43:51.786Z,44.85
2024-01-24T01:46:40.893Z,44.29
2024-01-24T01:49:26.910Z,44.79
2024-01-24T01:52:46.641Z,44.56
2024-01-24T01:55:32.965Z,44.47
2024-01-24T01:58:25.953Z,44.21
2024-01-24T02:01:12.340Z,44.22
2024-01-24T02:04:04.700Z,43.88
2024-01-24T02:06:52.552Z,43.81
2024-01-24T02:09:38.731Z,43.85
2024-01-24T02:12:26.888Z,44.16
2024-01-24T02:15:13.040Z,43.77
2024-01-24T02:17:59.001Z,44.00
2024-01-24T02:20:45.656Z,43.96
2024-01-24T02:23:31.747Z,44.42
2024-01-24T02:26:18.052Z,43.93
2024-01-24T02:29:04.217Z,44.13
2024-01-24T02:31:52.451Z,43.88
2024-01-24T02:34:38.576Z,44.08
2024-01-24T02:37:24.468Z,44.12
2024-01-24T02:40:17.228Z,43.55
2024-01-24T02:43:03.574Z,43.86
2024-01-24T02:45:50.367Z,44.23
2024-01-24T02:48:36.837Z,44.14
2024-01-24T02:51:27.063Z,43.86
2024-01-24T02:54:13.034Z,44.17
2024-01-24T02:56:59.974Z,44.13
2024-01-24T02:59:45.864Z,43.86
2024-01-24T03:02:32.539Z,44.07
2024-01-24T03:05:18.722Z,43.69
2024-01-24T03:08:06.354Z,43.78
2024-01-24T03:10:52.106Z,43.89
2024-01-24T03:13:37.989Z,44.10
2024-01-24T03:16:24.185Z,44.20
2024-01-24T03:19:10.460Z,43.84
2024-01-24T03:21:56.466Z,43.55
2024-01-24T03:24:42.785Z,43.45
2024-01-24T03:27:28.633Z,43.55
2024-01-24T03:30:14.993Z,43.79
2024-01-24T03:33:02.216Z,44.18
2024-01-24T03:35:48.834Z,43.73
2024-01-24T03:38:35.581Z,43.49
2024-01-24T03:41:23.759Z,43.55
2024-01-24T03:44:10.161Z,43.73
2024-01-24T03:46:56.463Z,43.82
2024-01-24T03:49:42.601Z,43.40
2024-01-24T03:52:28.635Z,43.26
2024-01-24T03:55:14.466Z,43.43
2024-01-24T03:58:00.530Z,43.42
2024-01-24T04:00:46.678Z,43.83
2024-01-24T04:03:33.824Z,43.58
2024-01-24T04:06:19.761Z,43.19
2024-01-24T04:09:06.659Z,43.38
2024-01-24T04:11:52.310Z,43.05
2024-01-24T04:14:38.261Z,43.45
2024-01-24T04:17:24.401Z,43.11
2024-01-24T04:20:10.794Z,43.14
2024-01-24T04:22:56.636Z,43.84
2024-01-24T04:25:42.672Z,43.67
2024-01-24T04:28:28.885Z,43.09
2024-01-24T04:31:15.290Z,43.33
2024-01-24T04:34:01.625Z,43.53
2024-01-24T04:36:47.833Z,43.56
2024-01-24T04:39:33.902Z,42.97
2024-01-24T04:42:20.490Z,43.38
2024-01-24T04:45:06.724Z,43.18
2024-01-24T04:47:52.989Z,43.20
2024-01-24T04:50:39.412Z,43.12
2024-01-24T04:53:25.837Z,42.71
2024-01-24T04:56:11.998Z,43.28
2024-01-24T04:58:58.179Z,42.59
2024-01-24T05:01:44.664Z,43.31
2024-01-24T05:04:30.498Z,43.45
2024-01-24T05:07:16.693Z,43.15
2024-01-24T05:10:04.733Z,43.05
2024-01-24T05:12:50.628Z,43.04
2024-01-24T05:15:36.625Z,43.19
2024-01-24T05:18:23.886Z,43.42
2024-01-24T05:21:09.783Z,43.27
2024-01-24T05:23:56.811Z,42.71
2024-01-24T05:26:44.880Z,43.15
2024-01-24T05:29:33.262Z,42.94
2024-01-24T05:32:19.347Z,43.18
2024-01-24T05:35:05.797Z,43.16
2024-01-24T05:37:51.937Z,42.89
2024-01-24T05:40:37.901Z,42.99
2024-01-24T05:43:24.013Z,43.07
2024-01-24T05:46:10.203Z,42.94
2024-01-24T05:48:57.086Z,43.21
2024-01-24T05:51:43.770Z,42.96
2024-01-24T05:54:32.205Z,43.19
2024-01-24T05:57:18.287Z,43.34
2024-01-24T06:00:04.616Z,43.11
2024-01-24T06:02:50.670Z,43.13
2024-01-24T06:05:36.584Z,43.15
2024-01-24T06:08:24.672Z,43.11
2024-01-24T06:11:11.308Z,43.20
2024-01-24T06:14:01.109Z,43.27
2024-01-24T06:16:47.071Z,43.04
2024-01-24T06:19:33.251Z,43.08
2024-01-24T06:22:19.281Z,43.30
2024-01-24T06:25:09.195Z,43.18
2024-01-24T06:28:01.555Z,43.50
2024-01-24T06:30:48.626Z,43.41
2024-01-24T06:33:37.822Z,43.40
2024-01-24T06:36:24.173Z,43.28
2024-01-24T06:39:11.215Z,43.25
2024-01-24T06:41:57.456Z,43.48
2024-01-24T06:44:45.129Z,43.91
2024-01-24T06:47:31.637Z,43.45
2024-01-24T06:50:19.015Z,43.78
2024-01-24T06:53:07.146Z,43.61
2024-01-24T06:55:53.167Z,43.72
2024-01-24T06:58:39.310Z,43.56
2024-01-24T07:01:25.484Z,43.15
2024-01-24T07:04:11.965Z,43.73
2024-01-24T07:06:58.334Z,43.17
2024-01-24T07:09:44.402Z,43.24
2024-01-24T07:12:31.402Z,43.63
2024-01-24T07:15:17.848Z,43.58
2024-01-24T07:18:04.488Z,43.29
2024-01-24T07:20:50.711Z,43.29
2024-01-24T07:23:36.715Z,43.46
2024-01-24T07:26:22.738Z,43.49
2024-01-24T07:29:08.645Z,43.41
2024-01-24T07:31:55.694Z,43.21
2024-01-24T07:34:41.535Z,43.55
2024-01-24T07:37:32.896Z,43.54
2024-01-24T07:40:18.902Z,43.50
2024-01-24T07:43:05.244Z,43.60
2024-01-24T07:45:52.116Z,43.41
2024-01-24T07:48:38.152Z,43.63
2024-01-24T07:51:24.334Z,43.52
2024-01-24T07:54:10.624Z,43.71
2024-01-24T07:56:56.341Z,43.56
2024-01-24T07:59:42.473Z,43.67
2024-01-24T08:02:29.704Z,43.75
2024-01-24T08:05:16.783Z,43.49
2024-01-24T08:08:03.099Z,43.54
2024-01-24T08:10:49.556Z,43.81
2024-01-24T08:13:35.434Z,43.76
2024-01-24T08:16:24.234Z,44.05
2024-01-24T08:19:12.559Z,43.82
2024-01-24T08:21:59.455Z,43.79
2024-01-24T08:24:46.938Z,43.86
2024-01-24T08:27:33.078Z,43.74
2024-01-24T08:30:21.661Z,43.82
2024-01-24T08:33:08.244Z,43.91
2024-01-24T08:35:54.532Z,44.17
2024-01-24T08:38:46.457Z,44.10
2024-01-24T08:41:33.089Z,43.59
2024-01-24T08:44:19.611Z,44.49
2024-01-24T08:47:07.307Z,44.23
2024-01-24T08:49:55.436Z,43.56
2024-01-24T08:52:41.407Z,43.67
2024-01-24T08:55:28.911Z,43.88
2024-01-24T08:58:15.416Z,44.18
2024-01-24T09:01:07.632Z,44.09
2024-01-24T09:03:54.730Z,44.14
2024-01-24T09:06:41.079Z,43.79
2024-01-24T09:09:28.174Z,43.69
2024-01-24T09:12:15.455Z,43.71
2024-01-24T09:15:01.711Z,44.35
2024-01-24T09:17:49.372Z,43.81
2024-01-24T09:20:38.854Z,43.39
2024-01-24T09:23:24.704Z,43.70
2024-01-24T09:26:18.256Z,43.71
2024-01-24T09:29:04.266Z,44.10
2024-01-24T09:31:50.320Z,43.82
2024-01-24T09:34:36.475Z,43.70
2024-01-24T09:37:22.755Z,43.36
2024-01-24T09:40:10.940Z,43.28
2024-01-24T09:43:02.053Z,42.36
2024-01-24T09:45:50.523Z,42.61
2024-01-24T09:48:36.830Z,42.37
2024-01-24T09:51:23.106Z,42.33
2024-01-24T09:54:09.725Z,42.45
2024-01-24T09:56:59.377Z,41.63
2024-01-24T09:59:45.561Z,41.56
2024-01-24T10:02:33.742Z,42.12
2024-01-24T10:05:21.822Z,41.43
2024-01-24T10:08:11.280Z,41.13
2024-01-24T10:10:57.301Z,41.54
2024-01-24T10:13:44.357Z,41.12
2024-01-24T10:16:30.305Z,40.56
2024-01-24T10:19:16.604Z,40.70
2024-01-24T10:22:07.213Z,40.87
2024-01-24T10:24:56.153Z,40.76
2024-01-24T10:27:43.068Z,40.14
2024-01-24T10:30:33.543Z,40.20
2024-01-24T10:33:20.166Z,40.11
2024-01-24T10:36:14.545Z,39.68
2024-01-24T10:39:11.016Z,39.46
2024-01-24T10:41:59.428Z,39.13
2024-01-24T10:44:46.076Z,39.56
2024-01-24T10:47:32.615Z,39.35
2024-01-24T10:50:19.290Z,39.00
2024-01-24T10:53:05.319Z,38.85
2024-01-24T10:55:52.490Z,39.05
2024-01-24T10:58:41.824Z,38.73
2024-01-24T11:01:28.230Z,38.89
2024-01-24T11:04:20.594Z,38.83
2024-01-24T11:07:11.532Z,37.99
2024-01-24T11:10:22.603Z,35.53
2024-01-24T11:13:14.895Z,38.06
2024-01-24T11:21:01.397Z,33.83
2024-01-24T11:23:48.323Z,38.06
2024-01-24T11:26:34.527Z,37.63
2024-01-24T11:29:20.931Z,37.35
2024-01-24T11:32:11.581Z,37.53
2024-01-24T11:35:28.817Z,37.03
2024-01-24T11:38:25.586Z,37.25
2024-01-24T11:41:27.504Z,37.40
2024-01-24T11:49:11.109Z,37.28
2024-01-24T12:06:51.951Z,36.35
2024-01-24T12:09:37.785Z,36.32
2024-01-24T12:12:24.795Z,35.81
2024-01-24T12:15:47.066Z,35.52
2024-01-24T12:18:33.699Z,35.34
2024-01-24T12:21:20.328Z,35.48
2024-01-24T12:24:07.083Z,35.27
2024-01-24T12:26:57.783Z,34.75
2024-01-24T12:29:45.545Z,35.00
2024-01-24T12:33:17.628Z,34.88
2024-01-24T12:36:07.724Z,35.34
2024-01-24T12:38:56.591Z,34.89
2024-01-24T12:42:14.446Z,34.94
2024-01-24T12:45:00.615Z,34.78
2024-01-24T12:47:46.609Z,34.51
2024-01-24T12:50:34.161Z,34.16
2024-01-24T12:53:21.690Z,34.01
2024-01-24T12:56:10.881Z,34.29
2024-01-24T12:58:58.206Z,34.08
2024-01-24T13:01:44.350Z,33.98
2024-01-24T13:04:30.463Z,33.65
2024-01-24T13:07:16.671Z,33.47
2024-01-24T13:10:07.041Z,33.84
2024-01-24T13:12:54.097Z,34.19
2024-01-24T13:15:41.189Z,34.03
2024-01-24T13:43:22.630Z,33.05
2024-01-24T13:46:08.792Z,33.86
2024-01-24T13:48:54.989Z,33.79
2024-01-24T13:51:43.391Z,33.76
2024-01-24T13:54:31.031Z,34.18
2024-01-24T13:57:17.191Z,34.29
2024-01-24T14:00:04.200Z,34.14
2024-01-24T14:02:51.968Z,33.99
2024-01-24T14:05:40.122Z,34.01
2024-01-24T14:08:27.091Z,34.14
2024-01-24T14:11:15.323Z,34.26
2024-01-24T14:14:01.725Z,34.32
2024-01-24T14:16:49.039Z,34.59
2024-01-24T14:19:35.041Z,34.42
2024-01-24T14:22:21.472Z,34.26
2024-01-24T14:25:09.242Z,34.48
2024-01-24T14:27:55.681Z,34.39
2024-01-24T14:30:41.468Z,34.54
2024-01-24T14:33:34.316Z,34.42
2024-01-24T14:36:32.934Z,34.60
2024-01-24T14:39:19.275Z,34.56
2024-01-24T14:42:08.336Z,34.75
2024-01-24T14:44:55.433Z,34.58
2024-01-24T14:47:41.590Z,34.79
2024-01-24T14:50:29.455Z,34.83
2024-01-24T14:53:17.590Z,34.62
2024-01-24T14:56:03.579Z,34.83
2024-01-24T14:58:49.855Z,34.74
2024-01-24T15:01:36.259Z,34.76
2024-01-24T15:04:22.840Z,34.71
2024-01-24T15:07:09.257Z,34.56
2024-01-24T15:09:55.836Z,34.89
2024-01-24T15:12:41.953Z,34.78
2024-01-24T15:15:28.280Z,34.96
2024-01-24T15:18:14.554Z,34.88
2024-01-24T15:21:07.981Z,34.79
2024-01-24T15:23:58.866Z,34.85
2024-01-24T15:26:46.271Z,34.71
2024-01-24T15:29:32.548Z,35.30
2024-01-24T15:32:18.888Z,35.19
2024-01-24T15:35:05.954Z,34.92
2024-01-24T15:37:53.528Z,35.22
2024-01-24T15:40:40.125Z,35.42
2024-01-24T15:43:27.306Z,35.56
2024-01-24T15:46:13.802Z,35.42
2024-01-24T15:49:00.230Z,34.96
2024-01-24T15:51:46.651Z,35.26
2024-01-24T15:54:32.958Z,35.30
2024-01-24T15:57:19.065Z,35.36
2024-01-24T16:00:11.191Z,35.33
2024-01-24T16:02:57.602Z,35.33
2024-01-24T16:05:47.378Z,35.65
2024-01-24T16:08:34.805Z,35.41
2024-01-24T16:11:20.943Z,35.24
2024-01-24T16:14:06.805Z,35.07
2024-01-24T16:16:57.223Z,35.27
2024-01-24T16:19:43.062Z,35.52
2024-01-24T16:22:36.178Z,35.62
2024-01-24T16:25:25.549Z,35.54
2024-01-24T16:28:16.144Z,35.52
2024-01-24T16:31:02.606Z,35.60
2024-01-24T16:33:49.952Z,35.75
2024-01-24T16:36:36.846Z,35.54
2024-01-24T16:39:23.039Z,35.48
2024-01-24T16:42:09.523Z,35.56
2024-01-24T16:44:55.975Z,35.65
2024-01-24T16:47:42.420Z,35.68
2024-01-24T16:50:28.289Z,35.61
2024-01-24T16:53:14.847Z,35.98
2024-01-24T16:56:00.993Z,35.90
2024-01-24T16:58:47.174Z,35.72
2024-01-24T17:01:33.359Z,35.60
2024-01-24T17:04:19.901Z,35.81
2024-01-24T17:07:06.036Z,35.55
2024-01-24T17:09:52.775Z,35.63
2024-01-24T17:12:39.766Z,35.54
2024-01-24T17:15:25.748Z,35.82
2024-01-24T17:18:12.960Z,35.94
2024-01-24T17:20:59.278Z,36.04
2024-01-24T17:23:46.765Z,36.07
2024-01-24T17:26:32.882Z,36.05
2024-01-24T17:29:19.621Z,36.40
2024-01-24T17:32:05.972Z,36.13
2024-01-24T17:34:51.998Z,36.68
2024-01-24T17:37:38.231Z,36.42
2024-01-24T17:40:24.678Z,36.37
2024-01-24T17:43:10.875Z,36.54
2024-01-24T17:45:57.480Z,36.47
2024-01-24T17:48:44.581Z,36.20
2024-01-24T17:51:34.270Z,36.06
2024-01-24T17:54:20.355Z,36.03
2024-01-24T17:57:06.387Z,36.57
2024-01-24T17:59:52.440Z,37.04
2024-01-24T18:02:38.711Z,36.60
2024-01-24T18:05:25.072Z,36.39
2024-01-24T18:08:11.376Z,36.20
2024-01-24T18:10:58.582Z,36.43
2024-01-24T18:13:45.966Z,36.56
2024-01-24T18:16:37.661Z,36.27
2024-01-24T18:19:23.700Z,37.08
2024-01-24T18:22:12.230Z,36.69
2024-01-24T18:25:22.548Z,36.41
2024-01-24T18:28:11.278Z,36.17
2024-01-24T18:30:57.124Z,36.62
2024-01-24T18:33:43.516Z,36.57
2024-01-24T18:36:29.567Z,36.78
2024-01-24T18:39:15.556Z,36.89
2024-01-24T18:42:02.101Z,36.84
2024-01-24T18:44:48.493Z,36.74
2024-01-24T18:47:34.739Z,37.12
2024-01-24T18:50:21.375Z,36.90
2024-01-24T18:53:09.038Z,37.13
2024-01-24T18:55:55.750Z,36.68
2024-01-24T18:58:42.300Z,37.38
2024-01-24T19:01:28.829Z,37.55
2024-01-24T19:04:16.732Z,37.20
2024-01-24T19:07:03.367Z,37.50
2024-01-24T19:09:50.003Z,37.39
2024-01-24T19:12:40.409Z,37.60
2024-01-24T19:15:28.380Z,37.15
2024-01-24T19:18:17.559Z,37.24
2024-01-24T19:21:06.165Z,37.25
2024-01-24T19:23:53.422Z,37.47
2024-01-24T19:26:43.995Z,37.93
2024-01-24T19:29:29.970Z,37.59
2024-01-24T19:32:16.100Z,37.69
2024-01-24T19:35:04.917Z,37.65
2024-01-24T19:37:51.061Z,38.11
2024-01-24T19:40:38.871Z,37.60
2024-01-24T19:43:25.029Z,37.70
2024-01-24T19:46:12.296Z,37.60
2024-01-24T19:48:58.690Z,37.46
2024-01-24T19:51:44.775Z,37.43
2024-01-24T19:54:30.821Z,37.36
2024-01-24T19:57:16.993Z,38.12
2024-01-24T20:00:03.090Z,37.84
2024-01-24T20:02:51.129Z,37.88
2024-01-24T20:05:38.225Z,38.12
2024-01-24T20:08:24.595Z,37.79
2024-01-24T20:11:10.838Z,38.32
2024-01-24T20:13:56.662Z,37.72
2024-01-24T20:16:44.281Z,38.37
2024-01-24T20:19:30.506Z,38.22
2024-01-24T20:22:17.082Z,38.11
2024-01-24T20:25:03.254Z,37.87
2024-01-24T20:27:49.889Z,38.15
2024-01-24T20:30:46.135Z,38.56
2024-01-24T20:33:41.120Z,38.36
2024-01-24T20:36:27.623Z,38.26
2024-01-24T20:39:21.587Z,38.42
2024-01-24T20:42:11.216Z,38.25
2024-01-24T20:44:59.934Z,38.60
2024-01-24T20:47:46.196Z,38.63
2024-01-24T20:50:34.373Z,38.34
2024-01-24T20:53:20.486Z,38.24
2024-01-24T20:56:06.765Z,38.50
2024-01-24T20:58:53.780Z,38.61
2024-01-24T21:01:40.244Z,38.88
2024-01-24T21:04:26.585Z,39.12
2024-01-24T21:07:13.216Z,38.64
2024-01-24T21:09:59.148Z,38.56
2024-01-24T21:12:45.404Z,38.90
2024-01-24T21:15:31.656Z,38.81
2024-01-24T21:18:17.815Z,39.04
2024-01-24T21:21:04.399Z,39.22
2024-01-24T21:23:51.591Z,39.04
2024-01-24T21:26:48.557Z,39.00
2024-01-24T21:29:34.521Z,39.19
2024-01-24T21:32:20.869Z,38.70
2024-01-24T21:35:07.963Z,38.72
2024-01-24T21:37:55.384Z,39.03
2024-01-24T21:40:41.550Z,39.06
2024-01-24T21:43:27.694Z,38.91
2024-01-24T21:46:13.946Z,39.15
2024-01-24T21:49:00.305Z,39.15
2024-01-24T21:51:47.457Z,39.07
2024-01-24T21:54:33.737Z,38.94
2024-01-24T21:57:20.072Z,38.93
2024-01-24T22:00:07.699Z,39.20
2024-01-24T22:02:53.838Z,39.45
2024-01-24T22:05:39.810Z,39.30
2024-01-24T22:08:25.953Z,38.97
2024-01-24T22:11:13.969Z,39.22
2024-01-24T22:14:01.297Z,39.29
2024-01-24T22:16:48.213Z,39.28
2024-01-24T22:19:36.124Z,39.10
2024-01-24T22:22:22.652Z,39.20
2024-01-24T22:25:11.333Z,38.87
2024-01-24T22:27:58.932Z,39.33
2024-01-24T22:30:50.074Z,39.05
2024-01-24T22:33:37.426Z,39.54
2024-01-24T22:36:29.018Z,39.03
2024-01-24T22:39:15.086Z,39.22
2024-01-24T22:42:01.329Z,39.59
2024-01-24T22:44:48.684Z,39.46
2024-01-24T22:47:34.923Z,39.16
2024-01-24T22:50:21.804Z,39.53
2024-01-24T22:53:07.878Z,39.56
2024-01-24T22:56:14.103Z,39.72
2024-01-24T22:59:00.233Z,39.23
2024-01-24T23:01:46.664Z,39.44
2024-01-24T23:04:32.986Z,39.32
2024-01-24T23:07:19.094Z,38.70
2024-01-24T23:10:05.928Z,39.26
2024-01-24T23:12:54.723Z,39.29
2024-01-24T23:15:40.686Z,39.81
2024-01-24T23:18:28.077Z,39.74
2024-01-24T23:21:15.514Z,39.52
2024-01-24T23:24:07.185Z,39.54
2024-01-24T23:26:53.307Z,39.61
2024-01-24T23:29:39.499Z,39.76
2024-01-24T23:32:26.875Z,39.50
2024-01-24T23:35:13.049Z,40.00
2024-01-24T23:37:59.148Z,40.23
2024-01-24T23:40:45.422Z,39.65
2024-01-24T23:43:31.569Z,40.14
2024-01-24T23:46:18.253Z,40.02
2024-01-24T23:49:04.867Z,39.96
2024-01-24T23:51:52.596Z,39.76
2024-01-24T23:54:39.076Z,40.13
2024-01-24T23:57:26.182Z,39.89
